EDT,Max TemperatureF,Mean TemperatureF,Min TemperatureF,Max Dew PointF,MeanDew PointF,Min DewpointF,Max Humidity, Mean Humidity, Min Humidity, Max Sea Level PressureIn, Mean Sea Level PressureIn, Min Sea Level PressureIn, Max VisibilityMiles, Mean VisibilityMiles, Min VisibilityMiles, Max Wind SpeedMPH, Mean Wind SpeedMPH, Max Gust SpeedMPH,PrecipitationIn, CloudCover, Events, WindDirDegrees
2010-10-1,60,53,46,46,43,41,87,64,51,30.09,30.06,30.02,10,10,10,14,9,20,0.00,2,,320
2010-10-2,51,46,42,41,35,30,76,63,53,30.28,30.18,30.06,10,10,10,16,12,23,0.00,6,,17
2010-10-3,50,44,39,37,34,30,87,66,50,30.47,30.41,30.33,10,10,10,12,7,16,0.00,0,,38
2010-10-4,55,44,32,45,34,30,93,77,44,30.45,30.42,30.36,10,10,7,10,3,,0.00,0,,173
2010-10-5,62,48,35,48,40,34,100,79,48,30.34,30.32,30.27,10,10,10,9,3,,0.00,0,,86
2010-10-6,68,54,41,54,44,39,93,76,37,30.25,30.07,29.93,10,10,10,16,4,20,0.00,1,,214
2010-10-7,62,58,55,46,43,41,63,56,48,30.04,29.97,29.92,10,10,10,17,12,23,0.00,0,,304
2010-10-8,71,60,48,50,45,39,88,63,31,29.99,29.95,29.88,10,10,10,16,8,21,0.00,1,,218
2010-10-9,66,58,50,48,44,39,94,63,40,30.12,30.06,29.96,10,10,10,17,8,23,0.00,0,,95
2010-10-10,64,54,44,55,47,39,87,76,68,30.01,29.93,29.86,10,10,10,13,5,,0.00,0,,222
2010-10-11,57,52,46,52,47,45,100,86,67,29.92,29.89,29.86,10,10,0,12,3,,0.00,2,Fog,50
2010-10-12,60,50,41,46,41,37,93,80,55,30.01,29.97,29.93,10,10,7,6,3,,0.00,1,,141
2010-10-13,59,54,50,54,48,45,88,73,59,30.06,30.01,29.93,10,10,7,14,7,18,0.00,5,Rain,311
2010-10-14,59,47,35,48,39,32,93,73,41,30.07,29.97,29.84,10,10,10,16,5,22,0.00,2,,240
2010-10-15,57,52,46,46,43,39,93,75,54,30.06,29.96,29.83,10,10,10,15,6,20,0.00,4,Rain,14
2010-10-16,62,48,33,48,40,34,100,80,45,30.10,30.03,29.89,10,10,10,16,4,22,0.00,1,,181
2010-10-17,55,52,50,41,36,32,67,53,41,30.06,30.01,29.95,10,10,10,18,15,28,0.00,2,,295
2010-10-18,53,50,46,36,33,30,62,54,47,30.07,30.03,29.97,10,10,10,15,9,21,0.00,1,,303
2010-10-19,53,48,42,43,37,28,93,65,46,29.92,29.87,29.83,10,10,10,22,11,30,0.00,4,,263
2010-10-20,57,50,42,45,42,36,93,71,48,29.77,29.58,29.47,10,10,10,26,11,34,0.00,3,,224
2010-10-21,44,42,39,39,33,28,81,69,57,29.92,29.77,29.64,10,10,7,22,14,32,0.00,7,Rain,317
2010-10-22,53,48,44,36,33,30,66,57,47,30.06,30.01,29.95,10,10,10,21,13,29,0.00,6,Rain,275
2010-10-23,55,46,37,50,42,34,100,85,67,30.00,29.95,29.92,10,9,2,9,4,,0.00,4,Rain,119
2010-10-24,60,56,51,59,54,52,100,97,82,29.91,29.81,29.68,10,4,0,10,3,,0.00,8,Fog-Rain,129
2010-10-25,64,58,53,57,56,54,100,90,77,29.61,29.54,29.50,10,8,2,9,5,21,0.00,8,Rain,189
2010-10-26,64,60,55,61,56,45,94,85,59,29.50,29.20,28.91,10,9,2,28,12,39,0.00,5,Rain,135
2010-10-27,55,52,48,39,36,32,66,51,44,29.34,29.25,29.20,10,10,7,36,23,48,0.00,6,Rain,210
2010-10-28,44,42,41,39,36,34,87,76,66,30.01,29.72,29.45,10,9,2,31,23,47,0.00,8,Rain,273
2010-10-29,44,42,39,34,31,27,70,65,57,30.22,30.17,30.10,10,10,10,22,17,30,0.00,6,,275
2010-10-30,48,44,41,41,37,28,87,76,61,29.99,29.80,29.70,10,10,10,22,8,30,0.00,5,,273
2010-10-31,42,40,39,34,29,25,81,62,53,30.23,30.08,29.93,10,10,10,18,14,28,0.00,6,Rain,341